Time;durP1;ratioP1;P1;durP2;ratioP2;P2;SDS_P1;SDS_P2;PMS_P1;PMS_P2;Temp;Humidity;BMP_temperature;BMP_pressure;BME280_temperature;BME280_humidity;BME280_pressure;Samples;Min_cycle;Max_cycle;Signal;HPM_P1;HPM_P2
2023/09/15 00:00:49;;;;;;;15.70;2.70;;;38.70;27.20;;;;;;5031890;28;20053;-67
2023/09/15 00:03:15;;;;;;;9.02;2.75;;;38.70;27.30;;;;;;5031133;28;20067;-66
2023/09/15 00:05:42;;;;;;;23.08;3.40;;;38.60;27.50;;;;;;5030639;28;20096;-66
2023/09/15 00:08:09;;;;;;;17.25;3.28;;;38.60;27.50;;;;;;5029145;28;20028;-68
2023/09/15 00:10:40;;;;;;;19.95;3.78;;;38.60;27.60;;;;;;5031234;28;20120;-68
2023/09/15 00:13:06;;;;;;;11.77;6.90;;;38.50;27.60;;;;;;5030227;28;20349;-66
2023/09/15 00:15:34;;;;;;;14.55;4.38;;;38.50;27.70;;;;;;5031128;28;20045;-68
2023/09/15 00:18:01;;;;;;;18.58;4.15;;;38.50;28.20;;;;;;5029899;28;20144;-68
2023/09/15 00:20:27;;;;;;;20.42;5.18;;;38.40;27.80;;;;;;5030032;28;20052;-68
2023/09/15 00:22:55;;;;;;;17.42;4.43;;;38.30;28.20;;;;;;5029628;28;20520;-68
2023/09/15 00:25:25;;;;;;;18.60;9.07;;;38.30;27.60;;;;;;5029190;28;20048;-67
2023/09/15 00:27:54;;;;;;;19.52;4.32;;;38.30;28.80;;;;;;5029347;28;20025;-66
2023/09/15 00:30:22;;;;;;;18.90;3.60;;;38.20;28.00;;;;;;5030417;28;20017;-67
2023/09/15 00:32:49;;;;;;;12.20;3.40;;;38.10;27.60;;;;;;5030289;28;20446;-68
2023/09/15 00:35:19;;;;;;;22.83;3.25;;;38.10;28.20;;;;;;5030357;28;20014;-67
2023/09/15 00:37:49;;;;;;;25.15;3.30;;;38.00;27.60;;;;;;5029657;28;20386;-67
2023/09/15 00:40:18;;;;;;;13.80;3.28;;;38.00;27.80;;;;;;5030377;28;20018;-67
2023/09/15 00:42:46;;;;;;;19.98;3.55;;;37.90;28.60;;;;;;5029644;28;20070;-66
2023/09/15 00:45:18;;;;;;;20.52;3.35;;;37.80;27.30;;;;;;5026616;28;20026;-68
2023/09/15 00:47:49;;;;;;;19.35;3.30;;;37.70;27.80;;;;;;5029104;28;20488;-68
2023/09/15 00:50:18;;;;;;;16.50;3.47;;;37.60;28.50;;;;;;5029731;28;20100;-67
2023/09/15 00:52:49;;;;;;;15.50;3.35;;;37.60;28.40;;;;;;5031971;28;20046;-66
2023/09/15 00:55:19;;;;;;;17.25;3.63;;;37.50;28.00;;;;;;5010513;28;20026;-66
2023/09/15 00:57:47;;;;;;;21.52;4.80;;;37.50;29.00;;;;;;5010361;28;20535;-67
2023/09/15 01:00:14;;;;;;;17.48;4.25;;;37.40;28.80;;;;;;5011897;28;20030;-68
2023/09/15 01:02:42;;;;;;;28.15;5.57;;;37.30;28.20;;;;;;5016974;28;20024;-67
2023/09/15 01:05:11;;;;;;;25.63;4.90;;;37.30;28.80;;;;;;5016213;28;20029;-67
2023/09/15 01:07:38;;;;;;;32.28;4.90;;;37.10;28.80;;;;;;5010408;28;20029;-67
2023/09/15 01:10:07;;;;;;;19.50;4.40;;;37.10;29.40;;;;;;5009953;28;20014;-68
2023/09/15 01:12:33;;;;;;;19.38;3.90;;;37.10;28.00;;;;;;5010146;28;20098;-67
2023/09/15 01:15:02;;;;;;;24.33;3.78;;;37.00;28.90;;;;;;5017271;28;20017;-67
2023/09/15 01:17:42;;;;;;;20.23;4.43;;;36.90;28.80;;;;;;5027047;28;20018;-67
2023/09/15 01:20:40;;;;;;;22.95;6.93;;;36.80;28.90;;;;;;5014970;28;20393;-67
2023/09/15 01:23:22;;;;;;;23.55;5.63;;;36.70;29.40;;;;;;5012509;28;20077;-68
2023/09/15 01:26:20;;;;;;;15.40;3.50;;;36.70;29.60;;;;;;5011819;28;20017;-68
2023/09/15 01:29:20;;;;;;;10.88;2.75;;;36.60;29.50;;;;;;5017805;28;20014;-68
2023/09/15 01:31:48;;;;;;;12.52;2.40;;;36.50;29.50;;;;;;5011513;28;20040;-66
2023/09/15 01:34:17;;;;;;;22.33;2.40;;;36.40;29.50;;;;;;5020295;28;20103;-68
2023/09/15 01:36:44;;;;;;;7.88;1.95;;;36.30;29.50;;;;;;5016186;28;20020;-69
2023/09/15 01:39:11;;;;;;;8.38;2.45;;;36.20;29.80;;;;;;5009130;28;20385;-70
2023/09/15 01:41:37;;;;;;;6.18;2.22;;;36.20;29.90;;;;;;5014026;28;20411;-68
2023/09/15 01:44:04;;;;;;;11.40;2.90;;;36.10;30.00;;;;;;5012922;28;20496;-68
2023/09/15 01:46:30;;;;;;;8.85;2.38;;;36.00;30.20;;;;;;5014269;28;20026;-67
2023/09/15 01:49:00;;;;;;;5.70;2.20;;;35.90;30.00;;;;;;5015603;28;20473;-67
2023/09/15 01:51:28;;;;;;;11.63;2.20;;;35.80;30.30;;;;;;5020959;28;20040;-67
2023/09/15 01:53:54;;;;;;;13.40;2.50;;;35.70;30.30;;;;;;5050747;28;20017;-67
2023/09/15 01:56:28;;;;;;;11.85;2.00;;;35.60;30.20;;;;;;5048672;28;20017;-68
2023/09/15 01:58:55;;;;;;;11.32;2.33;;;35.60;30.40;;;;;;5054619;28;20075;-67
2023/09/15 02:01:21;;;;;;;15.18;2.45;;;35.50;30.50;;;;;;5056307;28;20084;-68
2023/09/15 02:03:48;;;;;;;15.70;2.85;;;35.40;30.40;;;;;;5050353;28;20017;-67
2023/09/15 02:06:16;;;;;;;12.55;2.78;;;35.30;30.80;;;;;;5049137;28;20130;-67
2023/09/15 02:08:46;;;;;;;13.57;3.08;;;35.20;30.90;;;;;;5048659;28;20029;-68
2023/09/15 02:11:12;;;;;;;18.33;3.58;;;35.10;30.80;;;;;;5049751;28;20051;-68
2023/09/15 02:13:43;;;;;;;26.80;7.18;;;35.00;31.00;;;;;;5049159;28;20017;-69
2023/09/15 02:16:11;;;;;;;23.10;6.47;;;35.00;31.00;;;;;;5054370;28;20612;-68
2023/09/15 02:18:37;;;;;;;21.92;4.90;;;34.90;31.00;;;;;;5061079;28;20071;-68
2023/09/15 02:21:03;;;;;;;17.02;4.00;;;34.80;31.00;;;;;;5050345;28;20616;-67
2023/09/15 02:23:30;;;;;;;18.58;4.53;;;34.70;31.10;;;;;;5050224;28;20028;-69
2023/09/15 02:25:56;;;;;;;20.83;4.18;;;34.60;31.60;;;;;;5054397;28;20069;-68
2023/09/15 02:28:23;;;;;;;17.80;4.03;;;34.50;33.70;;;;;;5057076;28;20095;-67
2023/09/15 02:30:49;;;;;;;23.65;4.25;;;34.50;34.90;;;;;;5055768;28;20103;-67
2023/09/15 02:33:16;;;;;;;17.30;4.15;;;34.40;34.00;;;;;;5053586;28;20021;-66
2023/09/15 02:35:42;;;;;;;37.28;4.90;;;34.30;36.40;;;;;;5057174;28;20521;-68
2023/09/15 02:38:08;;;;;;;28.58;5.07;;;34.20;35.00;;;;;;5054380;28;20024;-67
2023/09/15 02:40:38;;;;;;;29.17;5.57;;;34.10;35.00;;;;;;5057268;28;20017;-67
2023/09/15 02:43:05;;;;;;;28.83;5.32;;;34.00;35.20;;;;;;5038875;28;20721;-65
2023/09/15 02:45:35;;;;;;;38.28;5.75;;;34.00;38.00;;;;;;5059835;28;20009;-65
2023/09/15 02:48:04;;;;;;;24.05;4.97;;;33.90;34.40;;;;;;5052704;28;20060;-69
2023/09/15 02:50:32;;;;;;;33.92;5.72;;;33.80;36.00;;;;;;5056965;28;20036;-67
2023/09/15 02:53:02;;;;;;;36.35;5.90;;;33.70;35.90;;;;;;5055686;28;20113;-68
2023/09/15 02:55:28;;;;;;;36.45;6.82;;;33.60;36.60;;;;;;5057716;28;20008;-68
2023/09/15 02:57:55;;;;;;;55.13;7.90;;;33.50;36.80;;;;;;5061506;28;20078;-66
2023/09/15 03:00:22;;;;;;;56.00;8.27;;;33.40;36.30;;;;;;5052336;28;20071;-66
2023/09/15 03:02:48;;;;;;;56.90;7.55;;;33.40;37.00;;;;;;5041961;28;20478;-70
2023/09/15 03:05:15;;;;;;;49.60;7.00;;;33.30;39.90;;;;;;5056192;28;20107;-68
2023/09/15 03:07:42;;;;;;;55.40;8.15;;;33.20;38.50;;;;;;5059497;28;20025;-66
2023/09/15 03:10:11;;;;;;;59.33;8.55;;;33.10;37.60;;;;;;5059744;28;20398;-67
2023/09/15 03:12:38;;;;;;;58.22;9.63;;;33.10;38.20;;;;;;5063077;28;20084;-65
2023/09/15 03:15:06;;;;;;;68.63;9.27;;;33.00;37.90;;;;;;5053536;28;20013;-67
2023/09/15 03:17:40;;;;;;;66.85;9.88;;;33.00;39.40;;;;;;5048925;28;20025;-68
2023/09/15 03:20:15;;;;;;;68.00;15.40;;;32.90;38.40;;;;;;5054320;28;20048;-66
2023/09/15 03:22:42;;;;;;;82.57;17.17;;;32.80;40.50;;;;;;5054399;28;20017;-68
2023/09/15 03:25:09;;;;;;;108.00;24.75;;;32.70;40.50;;;;;;5054588;28;20060;-67
2023/09/15 03:27:36;;;;;;;120.10;27.38;;;32.70;40.80;;;;;;5055025;28;20028;-67
2023/09/15 03:30:06;;;;;;;78.22;11.52;;;32.60;40.40;;;;;;5049634;28;20096;-70
2023/09/15 03:32:33;;;;;;;79.82;11.35;;;32.50;39.50;;;;;;5050362;28;20096;-70
2023/09/15 03:35:00;;;;;;;83.53;12.15;;;32.50;38.40;;;;;;5049282;28;20017;-66
2023/09/15 03:37:26;;;;;;;114.13;12.95;;;32.50;39.40;;;;;;5047358;28;20091;-70
2023/09/15 03:39:53;;;;;;;93.82;12.43;;;32.40;39.20;;;;;;5048460;28;20048;-64
2023/09/15 03:42:19;;;;;;;91.22;12.68;;;32.40;39.00;;;;;;5049925;28;20017;-66
2023/09/15 03:44:46;;;;;;;80.05;12.13;;;32.30;39.90;;;;;;5063535;28;20017;-67
2023/09/15 03:47:13;;;;;;;98.05;13.45;;;32.20;38.20;;;;;;5052572;28;20589;-67
2023/09/15 03:49:39;;;;;;;80.75;13.27;;;32.20;38.90;;;;;;5056258;28;20028;-67
2023/09/15 03:52:06;;;;;;;86.72;15.27;;;32.10;37.40;;;;;;5047979;28;20029;-64
2023/09/15 03:54:32;;;;;;;86.07;18.63;;;32.10;36.20;;;;;;5050018;28;20380;-66
2023/09/15 03:56:58;;;;;;;51.17;11.05;;;32.10;36.60;;;;;;5047416;28;20034;-68
2023/09/15 03:59:25;;;;;;;52.33;8.65;;;32.30;36.40;;;;;;5053633;28;20047;-68
2023/09/15 04:01:51;;;;;;;33.55;7.57;;;32.30;36.70;;;;;;5045782;28;20019;-69
2023/09/15 04:04:18;;;;;;;51.67;8.55;;;32.40;36.80;;;;;;5036322;28;20036;-68
2023/09/15 04:06:44;;;;;;;44.63;7.90;;;32.40;38.40;;;;;;5048663;28;20037;-67
2023/09/15 04:09:12;;;;;;;37.22;7.63;;;32.40;37.70;;;;;;5047718;28;20021;-68
2023/09/15 04:11:40;;;;;;;47.58;8.90;;;32.40;38.00;;;;;;5047136;28;20017;-67
2023/09/15 04:14:07;;;;;;;46.88;8.35;;;32.30;39.40;;;;;;5047252;28;20096;-70
2023/09/15 04:16:37;;;;;;;46.97;9.40;;;32.20;38.30;;;;;;5051742;28;20017;-69
2023/09/15 04:19:04;;;;;;;82.63;10.38;;;32.10;39.60;;;;;;5052240;28;20564;-68
2023/09/15 04:21:30;;;;;;;47.63;9.65;;;32.10;39.40;;;;;;5048982;28;20497;-67
2023/09/15 04:23:57;;;;;;;48.15;8.50;;;32.10;40.30;;;;;;5056912;28;20017;-69
2023/09/15 04:26:23;;;;;;;34.90;8.55;;;32.10;39.60;;;;;;5049033;28;20434;-68
2023/09/15 04:28:49;;;;;;;34.72;7.50;;;32.00;39.40;;;;;;5053311;28;20070;-68
2023/09/15 04:31:16;;;;;;;45.33;8.23;;;31.90;40.50;;;;;;5046980;28;20009;-68
2023/09/15 04:33:42;;;;;;;45.55;8.60;;;31.90;43.40;;;;;;5046575;28;20017;-69
2023/09/15 04:36:09;;;;;;;36.40;8.23;;;31.80;42.70;;;;;;5052731;28;20025;-69
2023/09/15 04:38:35;;;;;;;35.10;8.07;;;31.80;42.30;;;;;;5050420;28;20017;-68
2023/09/15 04:41:02;;;;;;;34.88;7.90;;;31.70;41.80;;;;;;5047518;28;20041;-70
2023/09/15 04:43:30;;;;;;;28.52;7.07;;;31.60;41.10;;;;;;5050008;28;20020;-69
2023/09/15 04:45:57;;;;;;;29.77;7.53;;;31.60;41.80;;;;;;5052727;28;20021;-69
2023/09/15 04:48:23;;;;;;;41.55;8.32;;;31.50;42.00;;;;;;5049961;28;20013;-68
2023/09/15 04:50:50;;;;;;;30.30;7.75;;;31.40;41.20;;;;;;5050539;28;20421;-69
2023/09/15 04:53:16;;;;;;;37.50;8.48;;;31.40;42.10;;;;;;5050464;28;20025;-68
2023/09/15 04:55:43;;;;;;;35.55;7.78;;;31.40;42.40;;;;;;5053830;28;20013;-69
2023/09/15 04:58:09;;;;;;;24.58;7.05;;;31.40;43.40;;;;;;5050008;28;20108;-68
2023/09/15 05:00:35;;;;;;;36.45;7.57;;;31.40;43.20;;;;;;5055328;28;20017;-69
2023/09/15 05:03:02;;;;;;;30.27;6.72;;;31.30;42.70;;;;;;5049385;28;20017;-68
2023/09/15 05:05:29;;;;;;;29.73;8.27;;;31.30;42.90;;;;;;5050562;28;20017;-66
2023/09/15 05:07:58;;;;;;;33.42;7.13;;;31.30;44.90;;;;;;5036780;28;20432;-64
2023/09/15 05:10:25;;;;;;;23.80;7.25;;;31.30;44.90;;;;;;5051040;28;20535;-66
2023/09/15 05:12:51;;;;;;;33.42;14.18;;;31.20;44.60;;;;;;5061562;28;20059;-66
2023/09/15 05:15:18;;;;;;;35.58;14.48;;;31.30;43.40;;;;;;5056306;28;20040;-66
2023/09/15 05:17:47;;;;;;;37.25;15.68;;;31.30;44.40;;;;;;5048320;28;20079;-67
2023/09/15 05:20:14;;;;;;;49.83;20.33;;;31.30;44.30;;;;;;5053345;28;20029;-66
2023/09/15 05:22:40;;;;;;;45.75;22.58;;;31.20;43.70;;;;;;5053863;28;20020;-66
2023/09/15 05:25:07;;;;;;;34.80;17.65;;;31.30;43.60;;;;;;5051143;28;20012;-65
2023/09/15 05:27:34;;;;;;;33.72;15.80;;;31.20;44.00;;;;;;5053285;28;20038;-67
2023/09/15 05:30:00;;;;;;;33.47;13.77;;;31.30;45.20;;;;;;5050111;28;20023;-64
2023/09/15 05:32:26;;;;;;;32.35;11.70;;;31.20;45.40;;;;;;5040509;28;20017;-67
2023/09/15 05:34:53;;;;;;;39.50;11.30;;;31.10;45.70;;;;;;5052677;28;20021;-66
2023/09/15 05:37:21;;;;;;;33.45;9.02;;;31.00;45.30;;;;;;5050095;28;20047;-68
2023/09/15 05:39:47;;;;;;;21.38;8.70;;;31.00;45.90;;;;;;5049913;28;20032;-70
2023/09/15 05:42:14;;;;;;;33.78;13.30;;;31.00;45.90;;;;;;5050789;28;20079;-66
2023/09/15 05:44:40;;;;;;;33.70;7.95;;;31.10;46.30;;;;;;5055113;28;20039;-67
2023/09/15 05:47:06;;;;;;;28.00;7.20;;;31.10;45.70;;;;;;5051400;28;20025;-68
2023/09/15 05:49:33;;;;;;;26.52;7.18;;;31.20;46.40;;;;;;5065406;28;20020;-67
2023/09/15 05:52:00;;;;;;;24.70;6.70;;;31.20;44.70;;;;;;5054341;28;20048;-66
2023/09/15 05:54:26;;;;;;;22.50;6.82;;;31.20;45.30;;;;;;5048996;28;20475;-67
2023/09/15 05:56:53;;;;;;;20.52;6.57;;;31.20;44.30;;;;;;5055302;28;20024;-67
2023/09/15 05:59:21;;;;;;;26.08;7.00;;;31.30;45.70;;;;;;5056085;28;20466;-66
2023/09/15 06:01:48;;;;;;;21.13;8.00;;;31.20;44.80;;;;;;5058468;28;20095;-66
2023/09/15 06:04:15;;;;;;;24.80;7.80;;;31.20;44.10;;;;;;5049428;28;20024;-65
2023/09/15 06:06:41;;;;;;;19.35;7.80;;;31.10;44.50;;;;;;5053273;28;20028;-65
2023/09/15 06:09:08;;;;;;;19.38;6.78;;;31.20;45.20;;;;;;5049261;28;20013;-69
2023/09/15 06:11:34;;;;;;;25.30;7.18;;;31.10;45.60;;;;;;5050016;28;20020;-64
2023/09/15 06:14:00;;;;;;;26.58;6.22;;;31.10;45.50;;;;;;5048996;28;20013;-66
2023/09/15 06:16:27;;;;;;;31.42;7.57;;;31.10;45.30;;;;;;5053246;28;20020;-68
2023/09/15 06:18:53;;;;;;;24.40;8.40;;;31.10;46.00;;;;;;5052729;28;20061;-69
2023/09/15 06:21:20;;;;;;;30.60;6.80;;;31.00;46.90;;;;;;5052616;28;20019;-66
2023/09/15 06:23:46;;;;;;;16.60;5.45;;;31.00;46.40;;;;;;5048388;28;20710;-67
2023/09/15 06:26:12;;;;;;;22.92;5.85;;;31.00;45.40;;;;;;5048079;28;20460;-66
2023/09/15 06:28:39;;;;;;;17.48;5.65;;;30.90;44.60;;;;;;5056984;28;20028;-65
2023/09/15 06:31:05;;;;;;;20.25;5.63;;;30.90;45.00;;;;;;5049028;28;20027;-65
2023/09/15 06:33:32;;;;;;;18.27;5.18;;;30.90;46.20;;;;;;5052861;28;20009;-66
2023/09/15 06:35:58;;;;;;;18.95;4.75;;;30.90;45.20;;;;;;5052639;28;20021;-66
2023/09/15 06:38:25;;;;;;;20.42;5.95;;;30.90;45.20;;;;;;5055317;28;20088;-65
2023/09/15 06:40:51;;;;;;;16.88;4.90;;;30.80;44.90;;;;;;5054531;28;20021;-65
2023/09/15 06:43:17;;;;;;;19.60;4.45;;;30.70;44.30;;;;;;5047644;28;20084;-65
2023/09/15 06:45:44;;;;;;;11.77;4.50;;;30.70;44.70;;;;;;5052939;28;20027;-66
2023/09/15 06:48:10;;;;;;;21.48;5.60;;;30.60;44.80;;;;;;5048848;28;20061;-65
2023/09/15 06:50:37;;;;;;;11.80;5.00;;;30.60;45.00;;;;;;5048395;28;20099;-66
2023/09/15 06:53:03;;;;;;;14.75;4.15;;;30.60;45.60;;;;;;5058674;28;20032;-66
2023/09/15 06:55:30;;;;;;;13.63;4.70;;;30.60;45.80;;;;;;5052297;28;20021;-66
2023/09/15 06:57:57;;;;;;;12.10;4.10;;;30.60;46.40;;;;;;5048469;28;20078;-70
2023/09/15 07:00:23;;;;;;;19.60;4.70;;;30.60;45.80;;;;;;5051739;28;20023;-66
2023/09/15 07:02:50;;;;;;;11.65;4.15;;;30.60;45.60;;;;;;5050395;28;20028;-66
2023/09/15 07:05:16;;;;;;;14.82;4.45;;;30.60;45.90;;;;;;5053797;28;20043;-65
2023/09/15 07:07:42;;;;;;;12.45;4.15;;;30.60;45.80;;;;;;5048689;28;20051;-67
2023/09/15 07:10:09;;;;;;;13.52;4.20;;;30.60;46.00;;;;;;5051415;28;20047;-67
2023/09/15 07:12:35;;;;;;;19.92;5.13;;;30.50;46.60;;;;;;5050697;28;20080;-66
2023/09/15 07:15:04;;;;;;;15.40;4.55;;;30.40;46.40;;;;;;5049144;28;20024;-66
2023/09/15 07:17:30;;;;;;;15.73;4.75;;;30.40;46.30;;;;;;5054065;28;20486;-66
2023/09/15 07:19:57;;;;;;;20.38;4.85;;;30.40;45.80;;;;;;5048507;28;20027;-66
2023/09/15 07:22:24;;;;;;;16.77;4.50;;;30.30;45.80;;;;;;5050699;28;20017;-67
2023/09/15 07:24:51;;;;;;;21.85;4.55;;;30.30;46.30;;;;;;5047323;28;20025;-66
2023/09/15 07:27:17;;;;;;;14.38;5.22;;;30.30;45.60;;;;;;5049706;28;20127;-68
2023/09/15 07:29:44;;;;;;;15.85;4.47;;;30.30;45.50;;;;;;5051359;28;20464;-66
2023/09/15 07:32:10;;;;;;;20.92;4.72;;;30.30;45.40;;;;;;5055073;28;20017;-64
2023/09/15 07:34:36;;;;;;;15.25;4.35;;;30.20;45.60;;;;;;5056058;28;20012;-65
2023/09/15 07:37:05;;;;;;;13.50;4.32;;;30.20;45.50;;;;;;5048437;28;20031;-64
2023/09/15 07:39:31;;;;;;;16.48;4.72;;;30.10;45.40;;;;;;5051806;28;20047;-66
2023/09/15 07:41:58;;;;;;;20.27;5.10;;;30.10;46.10;;;;;;5050504;28;20044;-65
2023/09/15 07:44:24;;;;;;;20.00;4.88;;;30.00;46.30;;;;;;5053436;28;20016;-66
2023/09/15 07:46:51;;;;;;;14.75;4.50;;;29.90;46.30;;;;;;5049478;28;20025;-66
2023/09/15 07:49:18;;;;;;;14.32;3.90;;;29.90;46.50;;;;;;5048061;28;20394;-67
2023/09/15 07:51:47;;;;;;;8.52;3.45;;;29.90;46.40;;;;;;5050474;28;20432;-64
2023/09/15 07:54:13;;;;;;;9.63;3.95;;;29.90;46.70;;;;;;5053222;28;20029;-65
2023/09/15 07:56:40;;;;;;;16.45;3.85;;;29.90;46.50;;;;;;5047839;28;20023;-65
2023/09/15 07:59:07;;;;;;;12.85;4.47;;;29.90;46.30;;;;;;5047731;28;20055;-65
2023/09/15 08:01:34;;;;;;;15.38;3.33;;;29.80;46.20;;;;;;5048546;28;20048;-66
2023/09/15 08:04:01;;;;;;;13.57;3.58;;;29.80;47.00;;;;;;5053016;28;20025;-66
2023/09/15 08:06:27;;;;;;;13.60;3.78;;;29.90;46.50;;;;;;5048951;28;20092;-66
2023/09/15 08:08:54;;;;;;;14.18;3.40;;;29.90;45.80;;;;;;5051529;28;20013;-67
2023/09/15 08:11:20;;;;;;;9.38;3.58;;;29.90;45.40;;;;;;5051362;28;20013;-65
2023/09/15 08:13:46;;;;;;;9.38;3.45;;;29.90;45.90;;;;;;5049548;28;20017;-66
2023/09/15 08:16:13;;;;;;;9.02;3.55;;;29.90;45.00;;;;;;5057229;28;20024;-64
2023/09/15 08:18:40;;;;;;;10.27;3.33;;;29.90;44.90;;;;;;5055002;28;20475;-66
2023/09/15 08:21:06;;;;;;;8.40;3.00;;;29.80;45.00;;;;;;5054426;28;20020;-68
2023/09/15 08:23:34;;;;;;;11.15;3.60;;;29.90;44.50;;;;;;5052613;28;20005;-67
2023/09/15 08:26:01;;;;;;;8.55;3.20;;;29.90;44.50;;;;;;5052757;28;20496;-65
2023/09/15 08:28:27;;;;;;;12.50;3.08;;;29.90;44.60;;;;;;5058539;28;20096;-68
2023/09/15 08:30:54;;;;;;;10.40;2.90;;;29.90;44.50;;;;;;5054098;28;20024;-65
2023/09/15 08:33:20;;;;;;;12.40;2.88;;;30.00;45.10;;;;;;5055988;28;20472;-65
2023/09/15 08:35:46;;;;;;;11.57;3.22;;;30.00;44.70;;;;;;5055160;28;20013;-65
2023/09/15 08:38:13;;;;;;;12.95;6.72;;;29.90;45.30;;;;;;5054430;28;20021;-65
2023/09/15 08:40:51;;;;;;;15.05;10.07;;;29.90;45.20;;;;;;5056736;28;20013;-67
2023/09/15 08:43:19;;;;;;;13.55;11.30;;;29.90;45.70;;;;;;5053255;28;20013;-66
2023/09/15 08:45:46;;;;;;;14.07;12.07;;;29.80;45.80;;;;;;5058194;28;20024;-64
2023/09/15 08:48:17;;;;;;;10.63;3.33;;;29.80;45.90;;;;;;5057007;28;20032;-65
2023/09/15 08:50:45;;;;;;;8.73;3.00;;;29.70;45.60;;;;;;5057221;28;20316;-67
2023/09/15 08:53:13;;;;;;;10.48;3.20;;;29.70;45.60;;;;;;5045280;28;20107;-67
2023/09/15 08:55:40;;;;;;;8.95;2.80;;;29.70;45.20;;;;;;5055538;28;20024;-65
2023/09/15 08:58:08;;;;;;;11.25;3.55;;;29.60;45.50;;;;;;5058953;28;20218;-66
2023/09/15 09:00:34;;;;;;;8.52;3.05;;;29.60;45.40;;;;;;5054369;28;20020;-65
2023/09/15 09:03:03;;;;;;;11.23;2.97;;;29.50;45.40;;;;;;5058438;28;20381;-67
2023/09/15 09:05:31;;;;;;;8.98;3.25;;;29.50;45.50;;;;;;5057495;28;20086;-67
2023/09/15 09:07:59;;;;;;;7.07;3.28;;;29.50;45.40;;;;;;5057049;28;20036;-67
2023/09/15 09:10:26;;;;;;;6.78;2.95;;;29.40;45.60;;;;;;5061619;28;20483;-66
2023/09/15 09:12:52;;;;;;;9.23;3.55;;;29.40;45.90;;;;;;5063650;28;20017;-68
2023/09/15 09:15:21;;;;;;;11.75;3.67;;;29.40;45.70;;;;;;5054982;28;20029;-67
2023/09/15 09:17:48;;;;;;;14.50;3.22;;;29.40;46.00;;;;;;5055148;28;20017;-65
2023/09/15 09:20:27;;;;;;;9.13;3.00;;;29.40;45.80;;;;;;5057938;28;20705;-66
2023/09/15 09:22:54;;;;;;;11.13;3.85;;;29.30;45.90;;;;;;5056707;28;20099;-67
2023/09/15 09:25:33;;;;;;;10.27;3.35;;;29.30;46.10;;;;;;5056029;28;20162;-66
2023/09/15 09:28:00;;;;;;;13.27;3.28;;;29.30;46.60;;;;;;5057475;28;20028;-67
2023/09/15 09:30:29;;;;;;;15.48;3.85;;;29.30;46.30;;;;;;5055530;28;20061;-67
2023/09/15 09:32:56;;;;;;;11.13;3.35;;;29.20;46.40;;;;;;5059321;28;20478;-67
2023/09/15 09:35:23;;;;;;;6.72;3.08;;;29.20;46.60;;;;;;5057578;28;20017;-66
2023/09/15 09:37:52;;;;;;;9.93;3.60;;;29.10;46.80;;;;;;5058171;28;20023;-66
2023/09/15 09:40:20;;;;;;;22.75;3.85;;;29.10;47.00;;;;;;5057116;28;20498;-66
2023/09/15 09:42:49;;;;;;;10.23;3.55;;;29.10;46.50;;;;;;5058827;28;20023;-66
2023/09/15 09:45:17;;;;;;;9.68;3.10;;;29.00;46.90;;;;;;5055426;28;20103;-66
2023/09/15 09:47:44;;;;;;;11.23;3.20;;;29.00;46.90;;;;;;5055113;28;20029;-67
2023/09/15 09:50:11;;;;;;;9.52;3.40;;;28.90;46.80;;;;;;5055574;28;20356;-66
2023/09/15 09:52:39;;;;;;;7.68;3.40;;;28.90;47.00;;;;;;5060050;28;20028;-65
2023/09/15 09:55:10;;;;;;;12.75;3.20;;;28.90;47.00;;;;;;5055584;28;20467;-66
2023/09/15 09:57:40;;;;;;;8.15;3.08;;;28.80;47.20;;;;;;5053131;28;20099;-65
2023/09/15 10:00:17;;;;;;;12.65;2.95;;;28.80;47.50;;;;;;5058277;28;20383;-67
2023/09/15 10:02:44;;;;;;;13.63;3.83;;;28.70;47.00;;;;;;5061919;28;20489;-66
2023/09/15 10:05:11;;;;;;;11.75;3.40;;;28.70;47.20;;;;;;5058191;28;20352;-68
2023/09/15 10:07:38;;;;;;;8.77;3.30;;;28.60;47.30;;;;;;5052325;28;20081;-64
2023/09/15 10:10:06;;;;;;;10.63;3.60;;;28.60;47.80;;;;;;5058391;28;20391;-66
2023/09/15 10:12:34;;;;;;;10.73;3.80;;;28.50;47.50;;;;;;5058848;28;20024;-67
2023/09/15 10:15:04;;;;;;;8.07;3.53;;;28.40;48.10;;;;;;5052973;28;20038;-66
2023/09/15 10:17:33;;;;;;;13.60;4.07;;;28.40;48.80;;;;;;5054776;28;20064;-65
2023/09/15 10:20:00;;;;;;;18.40;3.80;;;28.40;48.90;;;;;;5059455;28;20020;-68
2023/09/15 10:22:26;;;;;;;10.68;3.50;;;28.50;48.90;;;;;;5059596;28;20047;-66
2023/09/15 10:24:58;;;;;;;8.65;3.60;;;28.40;49.00;;;;;;5059394;28;20012;-69
2023/09/15 10:27:27;;;;;;;10.75;3.70;;;28.40;48.20;;;;;;5051881;28;20543;-66
2023/09/15 10:29:53;;;;;;;10.85;3.83;;;28.40;48.80;;;;;;5048463;28;20029;-69
2023/09/15 10:32:20;;;;;;;19.90;4.07;;;28.40;48.80;;;;;;5048908;28;20052;-68
2023/09/15 10:34:48;;;;;;;8.85;3.10;;;28.40;48.80;;;;;;5049186;28;20043;-69
2023/09/15 10:37:15;;;;;;;11.50;3.45;;;28.30;48.10;;;;;;5054643;28;20103;-67
2023/09/15 10:39:42;;;;;;;10.82;3.55;;;28.30;48.40;;;;;;5050553;28;20021;-67
2023/09/15 10:42:15;;;;;;;11.52;3.58;;;28.30;48.20;;;;;;5053636;28;20063;-68
2023/09/15 10:44:42;;;;;;;14.38;4.07;;;28.20;47.90;;;;;;5051497;28;20016;-66
2023/09/15 10:47:19;;;;;;;13.30;3.70;;;28.20;48.20;;;;;;5049520;28;20067;-67
2023/09/15 10:49:50;;;;;;;12.40;3.50;;;28.20;47.90;;;;;;5051724;28;20009;-66
2023/09/15 10:52:17;;;;;;;7.85;3.40;;;28.20;47.70;;;;;;5049952;28;20047;-67
2023/09/15 10:54:44;;;;;;;13.73;4.15;;;28.10;47.50;;;;;;5049328;28;20037;-66
2023/09/15 10:57:10;;;;;;;19.17;3.90;;;28.10;47.30;;;;;;5049848;28;20070;-67
2023/09/15 10:59:37;;;;;;;11.38;3.58;;;28.10;47.70;;;;;;5048987;28;20548;-67
2023/09/15 11:02:04;;;;;;;14.18;4.28;;;28.00;47.90;;;;;;5053431;28;20359;-67
2023/09/15 11:04:31;;;;;;;14.00;3.60;;;28.00;47.50;;;;;;5047753;28;20039;-67
2023/09/15 11:06:59;;;;;;;16.20;4.15;;;27.90;47.40;;;;;;5049524;28;20082;-67
2023/09/15 11:09:25;;;;;;;12.90;3.83;;;27.90;46.70;;;;;;5054253;28;20043;-68
2023/09/15 11:11:52;;;;;;;15.70;3.78;;;27.90;46.80;;;;;;5050004;28;20048;-65
2023/09/15 11:14:21;;;;;;;13.60;4.50;;;27.90;46.80;;;;;;5052128;28;20501;-70
2023/09/15 11:16:50;;;;;;;8.65;3.42;;;27.80;46.90;;;;;;5051626;28;20017;-68
2023/09/15 11:19:17;;;;;;;16.02;4.00;;;27.80;47.50;;;;;;5053178;28;20025;-67
2023/09/15 11:21:47;;;;;;;12.23;3.45;;;27.70;47.50;;;;;;5056988;28;20196;-68
2023/09/15 11:24:15;;;;;;;14.50;3.63;;;27.70;48.00;;;;;;5050058;28;20551;-66
2023/09/15 11:26:50;;;;;;;12.15;3.38;;;27.70;47.60;;;;;;5053632;28;20037;-67
2023/09/15 11:29:17;;;;;;;9.75;3.20;;;27.60;47.70;;;;;;5049132;28;20414;-66
2023/09/15 11:31:46;;;;;;;7.38;3.08;;;27.60;47.80;;;;;;5053073;28;20017;-67
2023/09/15 11:34:17;;;;;;;9.45;3.50;;;27.60;49.10;;;;;;5048105;28;20154;-67
2023/09/15 11:36:43;;;;;;;12.52;3.60;;;27.50;48.30;;;;;;5047038;28;20017;-67
2023/09/15 11:39:15;;;;;;;8.88;3.05;;;27.40;48.00;;;;;;5047314;28;20043;-68
2023/09/15 11:41:54;;;;;;;12.77;3.85;;;27.40;48.00;;;;;;5050700;28;20040;-68
2023/09/15 11:44:29;;;;;;;16.67;3.28;;;27.30;48.00;;;;;;5053233;28;20061;-66
2023/09/15 11:46:58;;;;;;;8.23;3.35;;;27.30;48.00;;;;;;5048432;28;20480;-67
2023/09/15 11:49:26;;;;;;;11.93;3.28;;;27.30;47.70;;;;;;5050556;28;20045;-67
2023/09/15 11:51:57;;;;;;;7.22;2.80;;;27.30;47.60;;;;;;5055620;28;20043;-66
2023/09/15 11:54:25;;;;;;;13.05;3.50;;;27.30;48.60;;;;;;5057856;28;20125;-66
2023/09/15 11:56:56;;;;;;;9.85;3.50;;;27.20;48.40;;;;;;5064148;28;20135;-66
2023/09/15 11:59:23;;;;;;;12.27;3.92;;;27.20;48.70;;;;;;5055397;28;20134;-67
2023/09/15 12:01:54;;;;;;;10.40;3.67;;;27.20;49.00;;;;;;5055061;28;20024;-63
2023/09/15 12:04:21;;;;;;;13.13;3.72;;;27.20;49.50;;;;;;5059117;28;20095;-66
2023/09/15 12:06:49;;;;;;;26.83;4.40;;;27.20;49.50;;;;;;5059721;28;20570;-66
2023/09/15 12:09:16;;;;;;;11.40;3.53;;;27.10;49.90;;;;;;5059508;28;20082;-66
2023/09/15 12:11:46;;;;;;;14.32;3.95;;;27.10;50.30;;;;;;5060732;28;20040;-67
2023/09/15 12:14:14;;;;;;;24.85;4.47;;;27.10;50.10;;;;;;5056516;28;20457;-65
2023/09/15 12:16:45;;;;;;;17.92;3.70;;;27.00;50.20;;;;;;5059600;28;20056;-66
2023/09/15 12:19:12;;;;;;;11.00;4.00;;;27.00;50.30;;;;;;5063520;28;20102;-67
2023/09/15 12:21:50;;;;;;;15.57;4.30;;;26.90;50.40;;;;;;5061677;28;20048;-67
2023/09/15 12:24:20;;;;;;;16.85;4.68;;;26.90;50.60;;;;;;5060974;28;20050;-65
2023/09/15 12:26:47;;;;;;;10.75;3.70;;;26.90;50.40;;;;;;5048181;28;20040;-66
2023/09/15 12:29:16;;;;;;;16.92;3.72;;;27.00;50.60;;;;;;5065720;28;20154;-64
2023/09/15 12:31:47;;;;;;;13.63;3.80;;;27.10;50.60;;;;;;5061011;28;20111;-67
2023/09/15 12:34:19;;;;;;;23.10;4.38;;;27.00;50.40;;;;;;5059495;28;20039;-64
2023/09/15 12:36:47;;;;;;;21.17;4.50;;;27.00;50.50;;;;;;5060071;28;20066;-65
2023/09/15 12:39:15;;;;;;;9.70;4.07;;;27.00;51.00;;;;;;5040467;28;20106;-66
2023/09/15 12:41:43;;;;;;;26.00;4.75;;;27.00;50.80;;;;;;5061029;28;20556;-66